Time;durP1;ratioP1;P1;durP2;ratioP2;P2;SDS_P1;SDS_P2;PMS_P1;PMS_P2;Temp;Humidity;BMP_temperature;BMP_pressure;BME280_temperature;BME280_humidity;BME280_pressure;Samples;Min_cycle;Max_cycle;Signal;HPM_P1;HPM_P2
2023/04/05 00:02:39;;;;;;;2.55;1.02;;;;;;;2.56;81.83;102254.94;6276081;28;20365;-73
2023/04/05 00:05:40;;;;;;;2.67;1.23;;;;;;;2.50;81.48;102253.19;6276112;28;20040;-74
2023/04/05 00:08:43;;;;;;;1.67;1.13;;;;;;;2.42;81.45;102254.88;6275533;28;20052;-73
2023/04/05 00:11:44;;;;;;;2.90;1.50;;;;;;;2.40;82.26;102251.38;6270668;28;20049;-74
2023/04/05 00:14:46;;;;;;;1.55;1.13;;;;;;;2.40;83.08;102252.25;6267901;28;20147;-73
2023/04/05 00:17:49;;;;;;;4.93;0.90;;;;;;;2.35;82.76;102250.50;6275355;28;20437;-74
2023/04/05 00:20:51;;;;;;;2.45;1.30;;;;;;;2.29;83.11;102248.75;6275613;28;20049;-74
2023/04/05 00:23:56;;;;;;;1.73;0.95;;;;;;;2.32;83.96;102253.06;6275613;28;20064;-74
2023/04/05 00:26:57;;;;;;;3.28;1.17;;;;;;;2.36;85.12;102253.09;6275315;28;20072;-74
2023/04/05 00:29:58;;;;;;;2.78;1.02;;;;;;;2.37;84.39;102249.66;6275784;28;20456;-73
2023/04/05 00:33:01;;;;;;;5.90;0.98;;;;;;;2.34;85.27;102253.97;6275361;28;20430;-74
2023/04/05 00:36:10;;;;;;;2.08;1.00;;;;;;;2.22;84.60;102257.34;6275242;28;20358;-74
2023/04/05 00:39:11;;;;;;;2.55;1.08;;;;;;;2.17;85.61;102251.25;6275246;28;20060;-73
2023/04/05 00:42:13;;;;;;;2.92;1.05;;;;;;;2.19;84.70;102254.75;6275232;28;20056;-74
2023/04/05 00:45:14;;;;;;;3.80;1.60;;;;;;;2.12;82.83;102253.84;6275434;28;20430;-74
2023/04/05 00:48:17;;;;;;;1.88;1.10;;;;;;;1.98;83.32;102251.16;6274420;28;20036;-74
2023/04/05 00:51:19;;;;;;;4.78;1.33;;;;;;;2.05;83.63;102244.31;6275369;28;20052;-74
2023/04/05 00:54:20;;;;;;;1.92;1.20;;;;;;;2.02;82.15;102239.94;6275177;28;20044;-74
2023/04/05 00:57:23;;;;;;;2.08;0.98;;;;;;;1.86;82.67;102243.28;6275014;28;20041;-73
2023/04/05 01:00:25;;;;;;;3.25;1.00;;;;;;;1.88;82.30;102235.53;6274818;28;20464;-74
2023/04/05 01:03:31;;;;;;;2.50;1.08;;;;;;;1.90;83.49;102237.28;6275178;28;20060;-74
2023/04/05 01:06:58;;;;;;;1.85;1.15;;;;;;;1.92;83.42;102239.91;6274766;28;20060;-73
2023/04/05 01:10:00;;;;;;;2.67;0.90;;;;;;;1.82;84.77;102236.38;6267322;28;20060;-74
2023/04/05 01:13:02;;;;;;;6.72;1.08;;;;;;;1.79;85.26;102238.94;6274808;28;20082;-74
2023/04/05 01:16:04;;;;;;;2.20;0.82;;;;;;;1.81;85.69;102237.22;6274862;28;20052;-74
2023/04/05 01:19:08;;;;;;;4.15;1.10;;;;;;;1.84;85.38;102231.19;6274027;28;20059;-74
2023/04/05 01:22:40;;;;;;;1.73;1.05;;;;;;;1.69;84.86;102235.41;6274784;28;20048;-74
2023/04/05 01:26:09;;;;;;;0.60;0.60;;;;;;;1.71;86.15;102232.84;6274587;28;20052;-74
2023/04/05 01:29:43;;;;;;;1.33;0.90;;;;;;;1.69;86.56;102238.00;6268652;28;20052;-73
2023/04/05 01:32:57;;;;;;;3.38;1.38;;;;;;;1.57;86.16;102231.88;6274925;28;20461;-73
2023/04/05 01:36:04;;;;;;;1.58;0.82;;;;;;;1.51;86.59;102235.28;6274586;28;20053;-74
2023/04/05 01:39:09;;;;;;;2.28;1.00;;;;;;;1.53;87.05;102239.59;6274452;28;20439;-73
2023/04/05 01:42:10;;;;;;;2.42;1.25;;;;;;;1.48;85.28;102235.25;6274508;28;20053;-74
2023/04/05 01:45:11;;;;;;;5.60;2.15;;;;;;;1.49;84.76;102237.84;6274778;28;20136;-74
2023/04/05 01:48:15;;;;;;;7.95;2.95;;;;;;;1.49;85.59;102224.03;6274136;28;20049;-74
2023/04/05 01:51:16;;;;;;;4.13;2.20;;;;;;;1.44;85.09;102225.72;6274292;28;20433;-74
2023/04/05 01:54:17;;;;;;;3.55;1.48;;;;;;;1.45;85.54;102227.44;6274547;28;20056;-74
2023/04/05 01:57:19;;;;;;;6.70;1.13;;;;;;;1.37;85.21;102230.00;6274017;28;20037;-74
2023/04/05 02:00:21;;;;;;;2.80;1.23;;;;;;;1.25;84.79;102227.28;6274503;28;20049;-73
2023/04/05 02:03:24;;;;;;;1.90;1.10;;;;;;;1.26;85.28;102221.25;6274033;28;20079;-74
2023/04/05 02:06:26;;;;;;;1.88;1.10;;;;;;;1.27;85.49;102221.28;6274158;28;20045;-74
2023/04/05 02:09:27;;;;;;;2.00;1.13;;;;;;;1.27;86.29;102216.09;6274059;28;20092;-74
2023/04/05 02:12:29;;;;;;;2.17;0.90;;;;;;;1.30;86.09;102214.38;6274344;28;20053;-74
2023/04/05 02:15:32;;;;;;;1.45;0.93;;;;;;;1.36;86.58;102214.41;6273908;28;20124;-74
2023/04/05 02:18:37;;;;;;;1.20;0.90;;;;;;;1.36;87.15;102217.00;6273980;28;20049;-74
2023/04/05 02:21:39;;;;;;;2.55;0.90;;;;;;;1.29;86.96;102217.81;6277337;28;20055;-74
2023/04/05 02:24:41;;;;;;;2.20;1.20;;;;;;;1.24;87.12;102208.28;6278670;28;20077;-74
2023/04/05 02:27:42;;;;;;;4.65;1.25;;;;;;;1.25;88.79;102206.56;6278174;28;20495;-74
2023/04/05 02:30:44;;;;;;;6.97;1.40;;;;;;;1.22;88.35;102206.53;6278692;28;20163;-74
2023/04/05 02:33:47;;;;;;;2.80;0.88;;;;;;;1.23;88.02;102206.56;6278368;28;20080;-74
2023/04/05 02:36:50;;;;;;;4.80;1.15;;;;;;;1.22;86.92;102202.22;6277771;28;20052;-73
2023/04/05 02:39:52;;;;;;;1.70;1.13;;;;;;;1.18;87.90;102204.78;6278496;28;20059;-74
2023/04/05 02:42:53;;;;;;;3.10;1.20;;;;;;;1.21;87.95;102204.81;6278188;28;20049;-74
2023/04/05 02:45:55;;;;;;;1.83;1.10;;;;;;;1.22;88.22;102206.53;6272361;28;20060;-74
2023/04/05 02:48:57;;;;;;;5.22;1.45;;;;;;;1.20;88.15;102198.75;6277814;28;20049;-74
2023/04/05 02:51:59;;;;;;;1.70;1.30;;;;;;;1.17;88.10;102195.28;6277218;28;20052;-71
2023/04/05 02:55:00;;;;;;;7.70;1.60;;;;;;;1.17;88.23;102187.50;6274891;28;20106;-71
2023/04/05 02:58:02;;;;;;;2.25;1.35;;;;;;;1.14;87.40;102190.09;6277089;28;20053;-72
2023/04/05 03:01:06;;;;;;;1.77;1.00;;;;;;;1.13;87.93;102185.75;6277307;28;20056;-71
2023/04/05 03:04:08;;;;;;;1.23;0.95;;;;;;;1.11;88.19;102182.28;6277469;28;20452;-71
2023/04/05 03:07:13;;;;;;;2.60;1.25;;;;;;;1.06;87.00;102183.97;6277252;28;20049;-71
2023/04/05 03:10:17;;;;;;;2.45;1.10;;;;;;;1.04;87.49;102181.34;6277341;28;20056;-71
2023/04/05 03:13:19;;;;;;;2.30;1.25;;;;;;;0.97;85.66;102175.25;6277432;28;20128;-71
2023/04/05 03:16:21;;;;;;;3.70;1.80;;;;;;;0.98;86.60;102179.56;6277424;28;20045;-71
2023/04/05 03:19:25;;;;;;;2.92;1.55;;;;;;;0.95;87.86;102182.16;6277172;28;20049;-71
2023/04/05 03:22:27;;;;;;;2.25;1.20;;;;;;;0.99;88.26;102178.72;6277182;28;20490;-71
2023/04/05 03:25:28;;;;;;;4.72;1.35;;;;;;;0.88;86.84;102177.75;6276308;28;20190;-71
2023/04/05 03:28:31;;;;;;;2.80;1.48;;;;;;;0.91;87.12;102182.09;6276443;28;20045;-71
2023/04/05 03:31:33;;;;;;;2.53;1.33;;;;;;;0.87;87.38;102178.63;6277074;28;20127;-71
2023/04/05 03:34:35;;;;;;;3.85;1.30;;;;;;;0.91;87.96;102180.41;6276987;28;20056;-71
2023/04/05 03:37:37;;;;;;;2.92;1.58;;;;;;;0.89;86.88;102181.22;6276633;28;20045;-71
2023/04/05 03:40:39;;;;;;;2.45;1.20;;;;;;;0.88;88.22;102179.50;6276862;28;20044;-71
2023/04/05 03:43:40;;;;;;;2.17;1.45;;;;;;;0.88;87.14;102187.25;6275428;28;20045;-71
2023/04/05 03:46:42;;;;;;;1.83;1.23;;;;;;;0.88;88.31;102184.66;6254778;28;20568;-71
2023/04/05 03:49:45;;;;;;;3.88;1.55;;;;;;;0.85;88.58;102180.31;6253873;28;20045;-71
2023/04/05 03:52:47;;;;;;;2.67;1.50;;;;;;;0.82;88.64;102179.41;6259260;28;20116;-71
2023/04/05 03:55:49;;;;;;;6.95;1.48;;;;;;;0.75;88.38;102174.19;6260891;28;20075;-72
2023/04/05 03:58:52;;;;;;;2.80;1.05;;;;;;;0.73;88.57;102180.22;6252674;28;20712;-71
2023/04/05 04:01:53;;;;;;;3.08;1.45;;;;;;;0.68;88.78;102175.00;6249883;28;20449;-71
2023/04/05 04:04:56;;;;;;;2.75;1.00;;;;;;;0.66;90.22;102179.25;6254117;28;20045;-71
2023/04/05 04:07:57;;;;;;;2.85;1.27;;;;;;;0.67;91.32;102178.41;6257066;28;20128;-71
2023/04/05 04:10:59;;;;;;;3.47;1.23;;;;;;;0.58;92.09;102174.84;6253920;28;20048;-71
2023/04/05 04:14:00;;;;;;;5.45;1.55;;;;;;;0.60;92.89;102176.63;6254204;28;20045;-71
2023/04/05 04:17:02;;;;;;;5.22;1.33;;;;;;;0.63;92.17;102173.19;6255248;28;20044;-71
2023/04/05 04:20:09;;;;;;;3.85;1.00;;;;;;;0.58;91.80;102178.31;6254035;28;20048;-71
2023/04/05 04:23:13;;;;;;;3.20;1.60;;;;;;;0.56;92.51;102172.25;6257792;28;20045;-72
2023/04/05 04:26:14;;;;;;;2.95;1.48;;;;;;;0.53;93.72;102174.81;6263077;28;20048;-71
2023/04/05 04:29:16;;;;;;;3.22;1.92;;;;;;;0.54;94.48;102171.38;6254486;28;20037;-71
2023/04/05 04:32:21;;;;;;;3.33;1.73;;;;;;;0.54;95.06;102161.00;6260391;28;20044;-71
2023/04/05 04:35:26;;;;;;;2.00;1.40;;;;;;;0.54;95.09;102171.38;6269444;28;20048;-71
2023/04/05 04:38:28;;;;;;;5.68;1.50;;;;;;;0.50;94.52;102182.56;6265135;28;20045;-71
2023/04/05 04:41:29;;;;;;;4.30;1.58;;;;;;;0.44;94.36;102172.97;6269618;28;20433;-71
2023/04/05 04:44:31;;;;;;;1.80;1.20;;;;;;;0.49;94.56;102181.66;6271006;28;20045;-71
2023/04/05 04:47:33;;;;;;;2.30;1.30;;;;;;;0.49;94.19;102189.41;6274671;28;20063;-71
2023/04/05 04:50:36;;;;;;;4.45;1.80;;;;;;;0.47;93.82;102193.72;6274892;28;20049;-71
2023/04/05 04:53:37;;;;;;;3.03;1.60;;;;;;;0.42;93.64;102181.59;6275396;28;20045;-71
2023/04/05 04:56:39;;;;;;;3.38;1.50;;;;;;;0.37;93.91;102178.09;6275229;28;20048;-71
2023/04/05 04:59:40;;;;;;;2.22;1.08;;;;;;;0.40;94.38;102186.72;6274732;28;20475;-71
2023/04/05 05:02:42;;;;;;;2.83;1.35;;;;;;;0.48;93.90;102192.00;6275233;28;20040;-71
2023/04/05 05:05:46;;;;;;;4.13;1.45;;;;;;;0.34;93.36;102185.81;6274930;28;20045;-71
2023/04/05 05:08:48;;;;;;;3.13;1.30;;;;;;;0.31;93.77;102181.44;6274869;28;20051;-71
2023/04/05 05:11:49;;;;;;;3.10;1.17;;;;;;;0.29;94.27;102187.47;6274600;28;20049;-71
2023/04/05 05:14:50;;;;;;;1.55;1.30;;;;;;;0.25;95.51;102195.16;6275159;28;20049;-71
2023/04/05 05:17:52;;;;;;;3.67;1.75;;;;;;;0.24;96.29;102188.28;6274617;28;20052;-71
2023/04/05 05:20:55;;;;;;;3.85;1.77;;;;;;;0.26;97.01;102185.69;6274926;28;20052;-72
2023/04/05 05:23:56;;;;;;;3.25;2.05;;;;;;;0.29;96.63;102179.72;6274923;28;20072;-71
2023/04/05 05:26:57;;;;;;;6.07;1.58;;;;;;;0.33;97.31;102184.06;6274389;28;20437;-74
2023/04/05 05:29:59;;;;;;;4.65;2.15;;;;;;;0.35;97.07;102178.03;6274683;28;20048;-72
2023/04/05 05:33:01;;;;;;;4.50;1.63;;;;;;;0.37;97.09;102184.13;6274586;28;20060;-72
2023/04/05 05:36:04;;;;;;;4.43;1.77;;;;;;;0.40;96.98;102180.69;6274794;28;20045;-72
2023/04/05 05:39:06;;;;;;;3.53;1.55;;;;;;;0.41;97.51;102191.06;6274628;28;20069;-72
2023/04/05 05:42:08;;;;;;;4.95;1.85;;;;;;;0.36;96.84;102184.09;6274394;28;20041;-72
2023/04/05 05:45:10;;;;;;;1.20;1.10;;;;;;;0.41;98.30;102178.13;6274332;28;20053;-72
2023/04/05 05:48:11;;;;;;;7.70;2.65;;;;;;;0.44;98.60;102172.13;6274453;28;20052;-72
2023/04/05 05:51:14;;;;;;;2.03;1.40;;;;;;;0.55;97.69;102175.72;6274650;28;20048;-72
2023/04/05 05:54:16;;;;;;;3.33;2.00;;;;;;;0.59;96.50;102174.91;6274655;28;20049;-72
2023/04/05 05:57:17;;;;;;;2.80;1.83;;;;;;;0.63;96.55;102170.59;6278765;28;20052;-71
2023/04/05 06:00:20;;;;;;;5.00;1.50;;;;;;;0.65;96.09;102177.53;6279440;28;20052;-72
2023/04/05 06:03:21;;;;;;;3.22;1.60;;;;;;;0.67;95.55;102177.53;6279250;28;20083;-72
2023/04/05 06:06:24;;;;;;;3.03;1.60;;;;;;;0.67;95.44;102181.00;6278685;28;20045;-72
2023/04/05 06:09:25;;;;;;;2.58;1.30;;;;;;;0.73;95.58;102180.22;6278846;28;20434;-72
2023/04/05 06:12:26;;;;;;;3.92;1.75;;;;;;;0.79;95.19;102182.84;6278506;28;20060;-71
2023/04/05 06:15:28;;;;;;;4.80;1.88;;;;;;;0.86;94.84;102186.34;6278860;28;20472;-74
2023/04/05 06:18:29;;;;;;;1.88;1.40;;;;;;;0.88;93.86;102182.94;6278593;28;20440;-74
2023/04/05 06:21:32;;;;;;;3.13;1.10;;;;;;;0.93;93.76;102180.41;6278847;28;20045;-74
2023/04/05 06:24:33;;;;;;;2.03;1.52;;;;;;;0.93;92.92;102180.41;6278626;28;20044;-74
2023/04/05 06:27:35;;;;;;;2.33;1.10;;;;;;;1.04;92.67;102178.75;6278526;28;20048;-74
2023/04/05 06:30:36;;;;;;;5.43;1.48;;;;;;;1.09;91.75;102182.28;6278416;28;20179;-74
2023/04/05 06:33:37;;;;;;;4.18;1.83;;;;;;;1.12;91.67;102171.06;6278693;28;20056;-74
2023/04/05 06:36:41;;;;;;;9.55;2.13;;;;;;;1.17;90.06;102162.47;6278408;28;20045;-73
2023/04/05 06:39:42;;;;;;;4.35;1.70;;;;;;;1.25;90.61;102167.72;6277934;28;20128;-74
2023/04/05 06:42:44;;;;;;;3.03;1.60;;;;;;;1.28;89.86;102165.19;6278347;28;20074;-74
2023/04/05 06:45:45;;;;;;;2.55;1.60;;;;;;;1.27;89.38;102163.41;6277930;28;20045;-75
2023/04/05 06:48:48;;;;;;;3.05;1.30;;;;;;;1.36;88.34;102172.97;6278178;28;20051;-74
2023/04/05 06:51:51;;;;;;;2.08;1.10;;;;;;;1.35;87.79;102168.66;6277690;28;20365;-74
2023/04/05 06:54:52;;;;;;;2.33;1.38;;;;;;;1.42;87.94;102173.03;6278143;28;20057;-74
2023/04/05 06:57:54;;;;;;;2.33;1.27;;;;;;;1.47;87.86;102173.94;6269462;28;20044;-74
2023/04/05 07:00:55;;;;;;;4.47;1.77;;;;;;;1.51;87.45;102176.56;6277564;28;20076;-74
2023/04/05 07:03:56;;;;;;;4.15;2.22;;;;;;;1.52;86.56;102173.13;6277791;28;20060;-74
2023/04/05 07:07:00;;;;;;;21.67;6.70;;;;;;;1.48;85.46;102178.25;6276983;28;20057;-74
2023/04/05 07:10:02;;;;;;;11.15;2.88;;;;;;;1.51;86.52;102173.97;6277044;28;20049;-74
2023/04/05 07:13:03;;;;;;;10.32;2.70;;;;;;;1.64;85.72;102168.88;6277421;28;20076;-74
2023/04/05 07:16:05;;;;;;;7.18;2.20;;;;;;;1.74;84.75;102163.75;6277430;28;20445;-74
2023/04/05 07:19:06;;;;;;;5.70;2.03;;;;;;;1.84;84.63;102164.66;6276021;28;20037;-74
2023/04/05 07:22:09;;;;;;;2.55;1.52;;;;;;;1.93;84.17;102159.53;6268339;28;20136;-73
2023/04/05 07:25:11;;;;;;;5.18;2.60;;;;;;;2.03;83.11;102158.72;6271015;28;20056;-73
2023/04/05 07:28:12;;;;;;;2.58;1.50;;;;;;;2.10;82.56;102153.56;6275763;28;20037;-74
2023/04/05 07:31:15;;;;;;;3.55;1.38;;;;;;;2.17;82.70;102151.00;6276257;28;20056;-74
2023/04/05 07:34:16;;;;;;;1.50;1.10;;;;;;;2.24;82.95;102155.34;6272636;28;20430;-74
2023/04/05 07:37:19;;;;;;;3.03;1.15;;;;;;;2.35;82.70;102152.78;6265222;28;20048;-74
2023/04/05 07:40:20;;;;;;;2.30;1.13;;;;;;;2.45;82.78;102156.28;6273280;28;20052;-74
2023/04/05 07:43:24;;;;;;;2.00;1.15;;;;;;;2.55;82.47;102150.28;6276772;28;20052;-75
2023/04/05 07:46:26;;;;;;;2.30;1.10;;;;;;;2.63;81.79;102147.66;6280302;28;20460;-74
2023/04/05 07:49:27;;;;;;;2.95;1.48;;;;;;;2.72;79.85;102155.47;6282596;28;20045;-74
2023/04/05 07:52:30;;;;;;;4.43;1.23;;;;;;;2.81;80.31;102152.88;6271106;28;20049;-74
2023/04/05 07:55:31;;;;;;;2.05;1.20;;;;;;;2.90;77.16;102150.31;6258067;28;20045;-74
2023/04/05 07:58:33;;;;;;;7.68;1.33;;;;;;;2.98;78.34;102146.00;6265924;28;20049;-74
2023/04/05 08:01:35;;;;;;;3.45;1.70;;;;;;;3.02;78.08;102154.66;6268135;28;20099;-75
2023/04/05 08:04:36;;;;;;;9.75;1.33;;;;;;;3.11;78.13;102156.38;6257252;28;20061;-74
2023/04/05 08:07:39;;;;;;;2.15;1.20;;;;;;;3.15;77.28;102151.19;6265266;28;20053;-74
2023/04/05 08:10:41;;;;;;;2.95;1.27;;;;;;;3.20;77.52;102148.59;6258017;28;20041;-74
2023/04/05 08:13:42;;;;;;;2.58;1.35;;;;;;;3.21;77.80;102153.78;6272421;28;20045;-75
2023/04/05 08:16:44;;;;;;;2.92;1.00;;;;;;;3.35;75.82;102150.31;6260775;28;20049;-75
2023/04/05 08:19:45;;;;;;;2.63;1.75;;;;;;;3.45;75.27;102147.72;6250203;28;20095;-74
2023/04/05 08:22:48;;;;;;;4.10;1.65;;;;;;;3.54;72.74;102141.63;6256130;28;20055;-74
2023/04/05 08:25:50;;;;;;;2.45;1.23;;;;;;;3.62;73.76;102145.06;6275609;28;20060;-75
2023/04/05 08:28:51;;;;;;;1.52;0.77;;;;;;;3.70;72.16;102148.53;6275565;28;20049;-75
2023/04/05 08:31:56;;;;;;;2.10;1.20;;;;;;;3.80;71.83;102145.03;6275811;28;20135;-74
2023/04/05 08:34:57;;;;;;;2.63;1.60;;;;;;;3.86;68.65;102146.75;6267876;28;20053;-75
2023/04/05 08:38:00;;;;;;;3.95;1.20;;;;;;;3.97;68.92;102141.53;6275273;28;20076;-75
2023/04/05 08:41:08;;;;;;;5.35;0.93;;;;;;;4.05;67.73;102143.22;6275563;28;20049;-74
2023/04/05 08:44:10;;;;;;;5.25;1.75;;;;;;;4.11;68.93;102134.53;6267655;28;20049;-74
2023/04/05 08:47:17;;;;;;;2.15;1.70;;;;;;;4.15;69.97;102137.97;6268439;28;20049;-75
2023/04/05 08:50:18;;;;;;;4.38;1.58;;;;;;;4.23;69.92;102141.41;6269439;28;20067;-75
2023/04/05 08:53:22;;;;;;;3.65;0.88;;;;;;;4.41;69.55;102135.25;6274856;28;20045;-75
2023/04/05 08:56:26;;;;;;;3.85;1.52;;;;;;;4.55;70.15;102136.03;6275111;28;20052;-74
2023/04/05 08:59:28;;;;;;;7.88;1.30;;;;;;;4.66;68.47;102139.44;6269306;28;20052;-74
2023/04/05 09:02:31;;;;;;;2.67;1.10;;;;;;;4.73;66.20;102129.84;6268715;28;20365;-74
2023/04/05 09:05:36;;;;;;;2.33;1.00;;;;;;;4.76;66.38;102124.59;6266391;28;20041;-75
2023/04/05 09:08:39;;;;;;;2.63;1.15;;;;;;;4.88;60.08;102128.88;6272580;28;20041;-74
2023/04/05 09:11:41;;;;;;;0.88;0.60;;;;;;;5.05;63.37;102121.78;6274740;28;20045;-75
2023/04/05 09:14:43;;;;;;;3.55;1.10;;;;;;;5.29;61.04;102120.69;6269560;28;20044;-75
2023/04/05 09:17:45;;;;;;;1.88;1.00;;;;;;;5.25;57.58;102122.47;6267108;28;20041;-74
2023/04/05 09:20:46;;;;;;;2.22;0.90;;;;;;;5.27;57.69;102125.09;6261444;28;20041;-75
2023/04/05 09:23:54;;;;;;;4.00;0.90;;;;;;;5.44;58.71;102123.16;6273695;28;20057;-75
2023/04/05 09:27:04;;;;;;;1.92;0.88;;;;;;;5.57;57.29;102118.69;6274752;28;20060;-75
2023/04/05 09:30:20;;;;;;;;;;;;;;;5.73;55.26;102111.56;6277891;28;20049;-75
2023/04/05 09:33:24;;;;;;;2.70;1.20;;;;;;;5.94;56.97;102108.72;6280083;28;19927;-75
2023/04/05 09:36:27;;;;;;;1.52;0.80;;;;;;;5.87;55.56;102112.28;6279499;28;20048;-74
2023/04/05 09:39:31;;;;;;;5.25;1.27;;;;;;;5.76;53.36;102111.50;6279810;28;20140;-75
2023/04/05 09:42:43;;;;;;;2.47;0.85;;;;;;;5.79;54.97;102107.13;6279475;28;20045;-74
2023/04/05 09:45:45;;;;;;;6.35;0.93;;;;;;;5.88;54.69;102102.69;6277973;28;20175;-75
2023/04/05 09:48:47;;;;;;;5.65;0.70;;;;;;;5.92;53.30;102091.38;6279397;28;20195;-75
2023/04/05 09:51:48;;;;;;;4.47;1.00;;;;;;;6.01;55.09;102092.13;6278369;28;20138;-73
2023/04/05 09:54:54;;;;;;;4.88;0.70;;;;;;;6.19;53.64;102087.53;6278299;28;20057;-74
2023/04/05 09:57:55;;;;;;;2.63;1.23;;;;;;;6.19;54.22;102100.59;6277060;28;20053;-74
2023/04/05 10:00:57;;;;;;;1.60;0.75;;;;;;;6.06;54.43;102105.97;6277202;28;20080;-75
2023/04/05 10:03:59;;;;;;;1.52;0.95;;;;;;;6.01;51.09;102099.09;6278501;28;20468;-74
2023/04/05 10:07:01;;;;;;;1.88;1.02;;;;;;;5.91;51.48;102095.69;6278890;28;20091;-75
2023/04/05 10:10:04;;;;;;;1.55;0.80;;;;;;;5.87;49.59;102082.72;6274489;28;20070;-75
2023/04/05 10:13:06;;;;;;;1.83;1.00;;;;;;;5.89;48.95;102084.41;6275572;28;20446;-75
2023/04/05 10:16:11;;;;;;;1.00;0.80;;;;;;;5.91;50.15;102087.00;6271356;28;20053;-74
2023/04/05 10:19:16;;;;;;;5.57;1.08;;;;;;;5.92;51.77;102080.94;6278844;28;20048;-75
2023/04/05 10:22:24;;;;;;;1.48;0.85;;;;;;;6.06;49.32;102082.47;6278770;28;20048;-75
2023/04/05 10:25:31;;;;;;;2.90;0.82;;;;;;;6.12;49.72;102078.91;6278846;28;20048;-75
2023/04/05 10:28:34;;;;;;;0.80;0.70;;;;;;;6.05;50.75;102072.06;6274604;28;20053;-75
2023/04/05 10:31:45;;;;;;;2.67;0.82;;;;;;;6.12;51.19;102070.22;6276418;28;20044;-75
2023/04/05 10:34:54;;;;;;;2.33;0.80;;;;;;;6.11;49.88;102071.97;6275298;28;20060;-73
2023/04/05 10:38:02;;;;;;;;;;;;;;;6.09;51.17;102069.41;6274015;28;20045;-74
2023/04/05 10:41:10;;;;;;;4.35;0.90;;;;;;;6.10;51.74;102067.66;6267459;28;19928;-74
2023/04/05 10:44:11;;;;;;;3.17;1.10;;;;;;;6.09;51.03;102061.56;6270492;28;20045;-74
2023/04/05 10:47:14;;;;;;;5.15;1.90;;;;;;;6.06;52.18;102064.22;6255497;28;20057;-74
2023/04/05 10:50:22;;;;;;;2.47;0.90;;;;;;;6.11;50.85;102061.53;6263082;28;20131;-74
2023/04/05 10:53:25;;;;;;;1.35;0.77;;;;;;;6.25;48.37;102064.81;6266376;28;20447;-74
2023/04/05 10:56:28;;;;;;;2.08;0.60;;;;;;;6.19;50.06;102057.09;6274219;28;20045;-75
2023/04/05 10:59:30;;;;;;;1.98;0.85;;;;;;;6.15;50.24;102054.53;6274292;28;20052;-75
2023/04/05 11:02:32;;;;;;;3.22;1.10;;;;;;;6.13;47.80;102054.53;6272933;28;20053;-75
2023/04/05 11:05:36;;;;;;;1.42;0.75;;;;;;;6.15;48.92;102051.94;6274687;28;20071;-74
2023/04/05 11:08:41;;;;;;;0.85;0.80;;;;;;;6.27;49.84;102052.63;6268586;28;20448;-74
2023/04/05 11:11:46;;;;;;;2.40;1.10;;;;;;;6.29;48.21;102050.84;6256588;28;20045;-73
2023/04/05 11:14:47;;;;;;;3.47;1.02;;;;;;;6.24;49.70;102046.56;6277333;28;20045;-74
2023/04/05 11:18:02;;;;;;;2.72;1.10;;;;;;;6.23;50.17;102048.34;6271090;28;20072;-74
2023/04/05 11:21:06;;;;;;;2.58;1.02;;;;;;;6.26;49.72;102039.56;6269791;28;20045;-73
2023/04/05 11:24:10;;;;;;;2.28;0.77;;;;;;;6.29;48.35;102039.53;6277332;28;20049;-74
2023/04/05 11:27:13;;;;;;;1.98;1.27;;;;;;;6.25;47.14;102035.25;6276894;28;20358;-74
2023/04/05 11:30:47;;;;;;;1.58;0.95;;;;;;;6.22;48.19;102024.84;6277399;28;20064;-74
2023/04/05 11:33:58;;;;;;;1.60;1.13;;;;;;;6.19;47.91;102027.50;6277295;28;20053;-73
2023/04/05 11:37:00;;;;;;;2.20;1.00;;;;;;;6.24;48.20;102023.94;6276733;28;20056;-74
2023/04/05 11:40:23;;;;;;;3.00;1.60;;;;;;;6.35;50.63;102016.78;6277240;28;20060;-74
2023/04/05 11:43:29;;;;;;;4.30;0.93;;;;;;;6.47;48.29;102013.16;6276561;28;20452;-73
2023/04/05 11:46:32;;;;;;;3.08;1.25;;;;;;;6.55;48.75;102013.03;6276896;28;20182;-73
2023/04/05 11:49:34;;;;;;;1.27;0.82;;;;;;;6.65;48.98;102005.91;6276603;28;20044;-73
2023/04/05 11:52:35;;;;;;;2.78;1.27;;;;;;;6.64;48.14;102004.19;6275607;28;20041;-74
2023/04/05 11:55:36;;;;;;;2.35;0.82;;;;;;;6.80;47.76;102001.25;6270019;28;20049;-74
2023/04/05 11:58:39;;;;;;;3.20;0.90;;;;;;;7.11;51.25;101993.72;6276366;28;20055;-73
2023/04/05 12:01:44;;;;;;;1.98;0.95;;;;;;;8.01;53.56;102003.22;6276389;28;20063;-73
2023/04/05 12:04:53;;;;;;;2.83;1.13;;;;;;;8.72;49.33;101984.97;6276390;28;20044;-73
2023/04/05 12:07:55;;;;;;;1.52;0.98;;;;;;;9.23;47.99;101987.09;6275755;28;20049;-72
2023/04/05 12:10:56;;;;;;;1.42;0.70;;;;;;;9.65;47.25;101986.75;6275975;28;20045;-73
2023/04/05 12:14:01;;;;;;;3.33;1.23;;;;;;;9.60;46.05;101986.88;6268908;28;20354;-75
2023/04/05 12:17:02;;;;;;;1.67;1.10;;;;;;;9.60;45.20;101988.66;6262761;28;20054;-74
2023/04/05 12:20:05;;;;;;;4.30;0.80;;;;;;;9.59;44.12;101989.56;6260901;28;20052;-75
2023/04/05 12:23:06;;;;;;;2.95;0.77;;;;;;;8.97;42.05;101979.91;6269562;28;20064;-74
2023/04/05 12:26:08;;;;;;;1.58;0.90;;;;;;;9.18;44.66;101978.47;6275824;28;20056;-74
2023/04/05 12:29:11;;;;;;;3.83;1.20;;;;;;;9.29;44.77;101980.78;6275283;28;20194;-74
2023/04/05 12:32:12;;;;;;;2.72;0.95;;;;;;;9.24;42.60;101974.81;6275905;28;20052;-75
2023/04/05 12:35:17;;;;;;;5.10;1.10;;;;;;;9.95;44.38;101968.34;6275559;28;20049;-75
2023/04/05 12:38:18;;;;;;;3.78;1.13;;;;;;;10.29;42.44;101955.03;6275207;28;20468;-74
2023/04/05 12:41:27;;;;;;;2.25;1.48;;;;;;;10.66;43.06;101955.50;6271481;28;20045;-76
2023/04/05 12:44:31;;;;;;;2.08;1.42;;;;;;;10.84;42.18;101945.28;6267279;28;20110;-76
2023/04/05 12:47:34;;;;;;;3.00;1.00;;;;;;;10.90;41.63;101950.31;6267134;28;20045;-75
2023/04/05 12:50:35;;;;;;;2.28;1.23;;;;;;;11.10;41.29;101949.59;6272494;28;20171;-76
2023/04/05 12:53:44;;;;;;;4.20;1.40;;;;;;;11.27;38.13;101943.75;6271247;28;20048;-76
2023/04/05 12:56:46;;;;;;;2.40;1.15;;;;;;;10.91;40.38;101934.50;6267045;28;20051;-75
2023/04/05 12:59:49;;;;;;;0.75;0.70;;;;;;;10.97;37.19;101930.78;6259385;28;20045;-76
2023/04/05 13:02:52;;;;;;;1.33;1.00;;;;;;;11.02;41.18;101927.97;6274478;28;20053;-75
2023/04/05 13:05:53;;;;;;;2.15;1.13;;;;;;;11.26;41.47;101926.22;6266167;28;20465;-76
2023/04/05 13:08:55;;;;;;;1.48;0.73;;;;;;;11.39;38.70;101925.69;6269252;28;20045;-76
2023/04/05 13:11:56;;;;;;;3.95;1.23;;;;;;;11.61;40.20;101923.09;6272806;28;20045;-76
2023/04/05 13:14:59;;;;;;;1.00;0.65;;;;;;;11.50;39.83;101913.91;6274372;28;20056;-77
2023/04/05 13:18:00;;;;;;;3.72;1.23;;;;;;;11.56;38.73;101909.25;6274659;28;20053;-77
2023/04/05 13:21:06;;;;;;;2.53;1.13;;;;;;;11.69;39.10;101905.22;6274632;28;20072;-76
2023/04/05 13:24:07;;;;;;;1.83;0.93;;;;;;;12.04;40.13;101903.00;6274419;28;20406;-76
2023/04/05 13:27:09;;;;;;;4.15;0.90;;;;;;;11.88;38.81;101897.47;6274153;28;20064;-75
2023/04/05 13:30:12;;;;;;;3.30;1.08;;;;;;;11.76;38.52;101881.28;6274532;28;20363;-76
2023/04/05 13:33:14;;;;;;;2.70;1.30;;;;;;;11.96;39.88;101891.06;6274862;28;20052;-77
2023/04/05 13:36:15;;;;;;;2.72;1.10;;;;;;;12.15;40.59;101887.59;6274170;28;20052;-76
2023/04/05 13:39:16;;;;;;;2.50;0.90;;;;;;;12.36;38.44;101885.84;6274753;28;20045;-76
2023/04/05 13:42:18;;;;;;;2.67;1.05;;;;;;;12.45;36.53;101881.97;6274584;28;20048;-76
2023/04/05 13:45:20;;;;;;;2.10;0.93;;;;;;;12.37;35.96;101881.44;6274090;28;20140;-76
2023/04/05 13:48:22;;;;;;;2.33;1.00;;;;;;;12.24;38.81;101878.44;6274432;28;20048;-76
2023/04/05 13:51:23;;;;;;;1.73;0.93;;;;;;;12.43;38.91;101870.59;6274285;28;20368;-76
2023/04/05 13:54:25;;;;;;;1.52;0.95;;;;;;;12.45;37.82;101868.78;6273453;28;20044;-77
2023/04/05 13:57:26;;;;;;;2.50;1.23;;;;;;;12.56;36.11;101866.53;6274042;28;20040;-76
2023/04/05 14:00:29;;;;;;;1.10;0.85;;;;;;;12.57;37.37;101865.59;6274674;28;20041;-76
2023/04/05 14:03:30;;;;;;;2.63;1.10;;;;;;;12.73;37.20;101859.66;6274382;28;20049;-76
2023/04/05 14:06:31;;;;;;;0.98;0.82;;;;;;;12.64;34.52;101850.38;6274180;28;20045;-76
2023/04/05 14:09:33;;;;;;;2.33;1.00;;;;;;;12.51;34.86;101857.97;6274035;28;20075;-75
2023/04/05 14:12:34;;;;;;;1.70;1.00;;;;;;;12.52;34.49;101850.91;6274170;28;20056;-75
2023/04/05 14:15:37;;;;;;;2.15;1.00;;;;;;;12.18;34.75;101844.47;6273697;28;20095;-75
2023/04/05 14:18:39;;;;;;;2.10;1.00;;;;;;;12.09;36.37;101843.06;6271338;28;20048;-74
2023/04/05 14:21:40;;;;;;;3.08;1.30;;;;;;;11.87;34.98;101851.00;6267106;28;20037;-74